sensor_id;sensor_type;location;lat;lon;timestamp;pressure;altitude;pressure_sealevel;temperature;humidity
29433;BME280;16405;53.964;13.448;2022-12-01T00:01:27;102538.84;;;0.36;100.00
29433;BME280;16405;53.964;13.448;2022-12-01T00:03:53;102539.97;;;0.46;100.00
29433;BME280;16405;53.964;13.448;2022-12-01T00:06:27;102542.66;;;0.51;100.00
29433;BME280;16405;53.964;13.448;2022-12-01T00:08:53;102546.88;;;0.47;100.00
29433;BME280;16405;53.964;13.448;2022-12-01T00:11:38;102535.72;;;0.50;100.00
29433;BME280;16405;53.964;13.448;2022-12-01T00:14:09;102532.88;;;0.39;100.00
29433;BME280;16405;53.964;13.448;2022-12-01T00:16:36;102533.88;;;0.44;100.00
29433;BME280;16405;53.964;13.448;2022-12-01T00:19:04;102540.53;;;0.34;100.00
29433;BME280;16405;53.964;13.448;2022-12-01T00:21:30;102543.31;;;0.42;100.00
29433;BME280;16405;53.964;13.448;2022-12-01T00:24:01;102536.41;;;0.43;100.00
29433;BME280;16405;53.964;13.448;2022-12-01T00:26:30;102534.66;;;0.42;100.00
29433;BME280;16405;53.964;13.448;2022-12-01T00:28:58;102525.28;;;0.47;100.00
29433;BME280;16405;53.964;13.448;2022-12-01T00:31:28;102527.47;;;0.30;100.00
29433;BME280;16405;53.964;13.448;2022-12-01T00:33:55;102536.25;;;0.35;100.00
29433;BME280;16405;53.964;13.448;2022-12-01T00:36:21;102533.41;;;0.26;100.00
29433;BME280;16405;53.964;13.448;2022-12-01T00:38:49;102531.00;;;0.33;100.00
29433;BME280;16405;53.964;13.448;2022-12-01T00:41:20;102529.13;;;0.28;100.00
29433;BME280;16405;53.964;13.448;2022-12-01T00:43:47;102534.50;;;0.35;100.00
29433;BME280;16405;53.964;13.448;2022-12-01T00:46:13;102539.88;;;0.43;100.00
29433;BME280;16405;53.964;13.448;2022-12-01T00:48:38;102542.41;;;0.40;100.00
29433;BME280;16405;53.964;13.448;2022-12-01T00:51:04;102542.34;;;0.37;100.00
29433;BME280;16405;53.964;13.448;2022-12-01T00:53:31;102546.09;;;0.50;100.00
29433;BME280;16405;53.964;13.448;2022-12-01T00:56:04;102546.97;;;0.50;100.00
29433;BME280;16405;53.964;13.448;2022-12-01T00:58:30;102556.56;;;0.54;100.00
29433;BME280;16405;53.964;13.448;2022-12-01T01:01:05;102550.22;;;0.43;100.00
29433;BME280;16405;53.964;13.448;2022-12-01T01:03:34;102551.91;;;0.39;100.00
29433;BME280;16405;53.964;13.448;2022-12-01T01:06:10;102545.63;;;0.31;100.00
29433;BME280;16405;53.964;13.448;2022-12-01T01:08:37;102553.94;;;0.18;100.00
29433;BME280;16405;53.964;13.448;2022-12-01T01:11:04;102549.00;;;0.27;100.00
29433;BME280;16405;53.964;13.448;2022-12-01T01:13:40;102548.06;;;0.25;100.00
29433;BME280;16405;53.964;13.448;2022-12-01T01:16:19;102553.47;;;0.33;100.00
29433;BME280;16405;53.964;13.448;2022-12-01T01:18:46;102553.53;;;0.36;100.00
29433;BME280;16405;53.964;13.448;2022-12-01T01:21:16;102549.59;;;0.17;100.00
29433;BME280;16405;53.964;13.448;2022-12-01T01:23:50;102548.03;;;0.24;100.00
29433;BME280;16405;53.964;13.448;2022-12-01T01:26:26;102548.94;;;0.24;100.00
29433;BME280;16405;53.964;13.448;2022-12-01T01:28:58;102553.38;;;0.30;100.00
29433;BME280;16405;53.964;13.448;2022-12-01T01:31:29;102546.50;;;0.32;100.00
29433;BME280;16405;53.964;13.448;2022-12-01T01:33:56;102547.53;;;0.37;100.00
29433;BME280;16405;53.964;13.448;2022-12-01T01:36:22;102548.00;;;0.22;100.00
29433;BME280;16405;53.964;13.448;2022-12-01T01:38:49;102549.84;;;0.28;100.00
29433;BME280;16405;53.964;13.448;2022-12-01T01:41:19;102553.16;;;0.20;100.00
29433;BME280;16405;53.964;13.448;2022-12-01T01:43:59;102551.63;;;0.29;100.00
29433;BME280;16405;53.964;13.448;2022-12-01T01:46:33;102551.53;;;0.26;100.00
29433;BME280;16405;53.964;13.448;2022-12-01T01:49:08;102550.72;;;0.27;100.00
29433;BME280;16405;53.964;13.448;2022-12-01T01:51:42;102552.50;;;0.29;100.00
29433;BME280;16405;53.964;13.448;2022-12-01T01:54:27;102555.28;;;0.37;100.00
29433;BME280;16405;53.964;13.448;2022-12-01T01:56:59;102555.97;;;0.30;100.00
29433;BME280;16405;53.964;13.448;2022-12-01T01:59:47;102546.56;;;0.33;100.00
29433;BME280;16405;53.964;13.448;2022-12-01T02:02:14;102550.06;;;0.35;100.00
29433;BME280;16405;53.964;13.448;2022-12-01T02:04:50;102552.81;;;0.42;100.00
29433;BME280;16405;53.964;13.448;2022-12-01T02:07:18;102547.41;;;0.34;100.00
29433;BME280;16405;53.964;13.448;2022-12-01T02:09:45;102554.50;;;0.39;100.00
29433;BME280;16405;53.964;13.448;2022-12-01T02:17:48;102552.00;;;0.44;100.00
29433;BME280;16405;53.964;13.448;2022-12-01T02:21:20;102555.97;;;0.30;100.00
29433;BME280;16405;53.964;13.448;2022-12-01T02:26:38;102550.44;;;0.16;100.00
29433;BME280;16405;53.964;13.448;2022-12-01T02:32:17;102555.69;;;0.19;100.00
29433;BME280;16405;53.964;13.448;2022-12-01T02:38:11;102554.28;;;0.32;100.00
29433;BME280;16405;53.964;13.448;2022-12-01T02:41:13;102556.66;;;0.23;100.00
29433;BME280;16405;53.964;13.448;2022-12-01T02:44:23;102558.53;;;0.30;100.00
29433;BME280;16405;53.964;13.448;2022-12-01T02:47:17;102558.72;;;0.36;100.00
29433;BME280;16405;53.964;13.448;2022-12-01T02:49:48;102556.81;;;0.29;100.00
29433;BME280;16405;53.964;13.448;2022-12-01T02:52:17;102550.78;;;0.30;100.00
29433;BME280;16405;53.964;13.448;2022-12-01T02:54:48;102544.78;;;0.31;100.00
29433;BME280;16405;53.964;13.448;2022-12-01T02:57:18;102553.53;;;0.36;100.00
29433;BME280;16405;53.964;13.448;2022-12-01T02:59:51;102553.69;;;0.42;100.00
29433;BME280;16405;53.964;13.448;2022-12-01T03:05:00;102545.84;;;0.40;100.00
29433;BME280;16405;53.964;13.448;2022-12-01T03:07:50;102547.69;;;0.45;100.00
29433;BME280;16405;53.964;13.448;2022-12-01T03:10:26;102546.97;;;0.50;100.00
29433;BME280;16405;53.964;13.448;2022-12-01T03:13:37;102545.31;;;0.54;100.00
29433;BME280;16405;53.964;13.448;2022-12-01T03:16:25;102549.38;;;0.43;100.00
29433;BME280;16405;53.964;13.448;2022-12-01T03:19:03;102536.31;;;0.38;100.00
29433;BME280;16405;53.964;13.448;2022-12-01T03:21:56;102553.75;;;0.45;100.00
29433;BME280;16405;53.964;13.448;2022-12-01T03:24:25;102552.97;;;0.48;100.00
29433;BME280;16405;53.964;13.448;2022-12-01T03:26:59;102549.59;;;0.52;100.00
29433;BME280;16405;53.964;13.448;2022-12-01T03:29:37;102552.06;;;0.47;100.00
29433;BME280;16405;53.964;13.448;2022-12-01T03:32:25;102554.53;;;0.43;100.00
29433;BME280;16405;53.964;13.448;2022-12-01T03:35:02;102551.16;;;0.45;100.00
29433;BME280;16405;53.964;13.448;2022-12-01T03:40:07;102552.06;;;0.46;100.00
29433;BME280;16405;53.964;13.448;2022-12-01T03:42:40;102546.88;;;0.46;100.00
29433;BME280;16405;53.964;13.448;2022-12-01T03:45:14;102546.50;;;0.32;100.00
29433;BME280;16405;53.964;13.448;2022-12-01T03:47:47;102546.72;;;0.39;100.00
29433;BME280;16405;53.964;13.448;2022-12-01T03:50:14;102546.44;;;0.29;100.00
29433;BME280;16405;53.964;13.448;2022-12-01T03:55:42;102549.22;;;0.36;100.00
29433;BME280;16405;53.964;13.448;2022-12-01T03:58:24;102549.31;;;0.41;100.00
29433;BME280;16405;53.964;13.448;2022-12-01T04:00:53;102543.53;;;0.51;100.00
29433;BME280;16405;53.964;13.448;2022-12-01T04:03:26;102546.97;;;0.50;100.00
29433;BME280;16405;53.964;13.448;2022-12-01T04:05:54;102552.44;;;0.63;100.00
29433;BME280;16405;53.964;13.448;2022-12-01T04:08:20;102542.19;;;0.67;100.00
29433;BME280;16405;53.964;13.448;2022-12-01T04:10:46;102547.34;;;0.66;100.00
29433;BME280;16405;53.964;13.448;2022-12-01T04:13:12;102549.00;;;0.64;100.00
29433;BME280;16405;53.964;13.448;2022-12-01T04:15:52;102543.00;;;0.66;100.00
29433;BME280;16405;53.964;13.448;2022-12-01T04:18:19;102547.34;;;0.66;100.00
29433;BME280;16405;53.964;13.448;2022-12-01T04:20:52;102543.38;;;0.45;100.00
29433;BME280;16405;53.964;13.448;2022-12-01T04:23:18;102546.09;;;0.50;100.00
29433;BME280;16405;53.964;13.448;2022-12-01T04:26:06;102551.31;;;0.51;100.00
29433;BME280;16405;53.964;13.448;2022-12-01T04:28:34;102542.44;;;0.42;100.00
29433;BME280;16405;53.964;13.448;2022-12-01T04:31:00;102547.78;;;0.48;100.00
29433;BME280;16405;53.964;13.448;2022-12-01T04:33:25;102548.56;;;0.45;100.00
29433;BME280;16405;53.964;13.448;2022-12-01T04:36:00;102549.47;;;0.46;100.00
29433;BME280;16405;53.964;13.448;2022-12-01T04:38:26;102552.97;;;0.48;100.00
29433;BME280;16405;53.964;13.448;2022-12-01T04:40:53;102548.44;;;0.39;100.00
29433;BME280;16405;53.964;13.448;2022-12-01T04:43:19;102547.47;;;0.35;100.00
29433;BME280;16405;53.964;13.448;2022-12-01T04:45:45;102553.47;;;0.33;100.00
29433;BME280;16405;53.964;13.448;2022-12-01T04:48:10;102551.91;;;0.39;100.00
29433;BME280;16405;53.964;13.448;2022-12-01T04:50:44;102558.94;;;0.45;100.00
29433;BME280;16405;53.964;13.448;2022-12-01T04:53:09;102555.25;;;0.35;100.00
29433;BME280;16405;53.964;13.448;2022-12-01T04:55:36;102551.78;;;0.35;100.00
29433;BME280;16405;53.964;13.448;2022-12-01T04:58:05;102558.09;;;0.46;100.00
29433;BME280;16405;53.964;13.448;2022-12-01T05:00:31;102555.28;;;0.37;100.00
29433;BME280;16405;53.964;13.448;2022-12-01T05:02:58;102565.72;;;0.40;100.00
29433;BME280;16405;53.964;13.448;2022-12-01T05:05:24;102563.25;;;0.45;100.00
29433;BME280;16405;53.964;13.448;2022-12-01T05:07:50;102561.34;;;0.37;100.00
29433;BME280;16405;53.964;13.448;2022-12-01T05:10:16;102567.06;;;0.26;100.00
29433;BME280;16405;53.964;13.448;2022-12-01T05:12:44;102568.25;;;0.37;100.00
29433;BME280;16405;53.964;13.448;2022-12-01T05:15:16;102570.03;;;0.39;100.00
29433;BME280;16405;53.964;13.448;2022-12-01T05:17:42;102563.97;;;0.39;100.00
29433;BME280;16405;53.964;13.448;2022-12-01T05:20:22;102564.97;;;0.44;100.00
29433;BME280;16405;53.964;13.448;2022-12-01T05:23:07;102562.25;;;0.39;100.00
29433;BME280;16405;53.964;13.448;2022-12-01T05:25:42;102565.06;;;0.49;100.00
29433;BME280;16405;53.964;13.448;2022-12-01T05:28:07;102560.75;;;0.48;100.00
29433;BME280;16405;53.964;13.448;2022-12-01T05:30:33;102570.22;;;0.47;100.00
29433;BME280;16405;53.964;13.448;2022-12-01T05:32:59;102568.63;;;0.54;100.00
29433;BME280;16405;53.964;13.448;2022-12-01T05:35:32;102573.16;;;0.61;100.00
29433;BME280;16405;53.964;13.448;2022-12-01T05:37:58;102572.09;;;0.53;100.00
29433;BME280;16405;53.964;13.448;2022-12-01T05:40:25;102567.88;;;0.58;100.00
29433;BME280;16405;53.964;13.448;2022-12-01T05:42:51;102581.84;;;0.63;100.00
29433;BME280;16405;53.964;13.448;2022-12-01T05:45:26;102573.31;;;0.67;100.00
29433;BME280;16405;53.964;13.448;2022-12-01T05:47:58;102573.09;;;0.59;100.00
29433;BME280;16405;53.964;13.448;2022-12-01T05:50:28;102577.59;;;0.67;100.00
29433;BME280;16405;53.964;13.448;2022-12-01T05:52:55;102582.81;;;0.68;100.00
29433;BME280;16405;53.964;13.448;2022-12-01T05:55:21;102584.66;;;0.72;100.00
29433;BME280;16405;53.964;13.448;2022-12-01T05:57:49;102582.13;;;0.75;100.00
29433;BME280;16405;53.964;13.448;2022-12-01T06:00:18;102583.53;;;0.61;100.00
29433;BME280;16405;53.964;13.448;2022-12-01T06:02:44;102588.88;;;0.69;100.00
29433;BME280;16405;53.964;13.448;2022-12-01T06:05:12;102589.78;;;0.69;100.00
29433;BME280;16405;53.964;13.448;2022-12-01T06:07:38;102590.66;;;0.70;100.00
29433;BME280;16405;53.964;13.448;2022-12-01T06:10:09;102588.97;;;0.72;100.00
29433;BME280;16405;53.964;13.448;2022-12-01T06:12:35;102601.13;;;0.74;100.00
29433;BME280;16405;53.964;13.448;2022-12-01T06:15:04;102597.41;;;0.65;100.00
29433;BME280;16405;53.964;13.448;2022-12-01T06:17:31;102596.38;;;0.56;100.00
29433;BME280;16405;53.964;13.448;2022-12-01T06:19:59;102594.66;;;0.57;100.00
29433;BME280;16405;53.964;13.448;2022-12-01T06:22:28;102599.25;;;0.69;100.00
29433;BME280;16405;53.964;13.448;2022-12-01T06:24:53;102602.81;;;0.72;100.00
29433;BME280;16405;53.964;13.448;2022-12-01T06:27:19;102610.69;;;0.77;100.00
29433;BME280;16405;53.964;13.448;2022-12-01T06:29:45;102605.41;;;0.72;100.00
29433;BME280;16405;53.964;13.448;2022-12-01T06:32:11;102603.56;;;0.68;100.00
29433;BME280;16405;53.964;13.448;2022-12-01T06:34:40;102603.63;;;0.70;100.00
29433;BME280;16405;53.964;13.448;2022-12-01T06:37:09;102602.69;;;0.68;100.00
29433;BME280;16405;53.964;13.448;2022-12-01T06:39:35;102605.28;;;0.68;100.00
29433;BME280;16405;53.964;13.448;2022-12-01T06:42:01;102598.44;;;0.71;100.00
29433;BME280;16405;53.964;13.448;2022-12-01T06:44:27;102592.31;;;0.68;100.00
29433;BME280;16405;53.964;13.448;2022-12-01T06:46:57;102602.28;;;0.51;100.00
29433;BME280;16405;53.964;13.448;2022-12-01T06:49:25;102600.88;;;0.64;100.00
29433;BME280;16405;53.964;13.448;2022-12-01T06:51:51;102605.91;;;0.57;100.00
29433;BME280;16405;53.964;13.448;2022-12-01T06:54:17;102606.09;;;0.67;100.00
29433;BME280;16405;53.964;13.448;2022-12-01T06:56:43;102608.44;;;0.56;100.00
29433;BME280;16405;53.964;13.448;2022-12-01T06:59:15;102608.59;;;0.62;100.00
29433;BME280;16405;53.964;13.448;2022-12-01T07:01:40;102615.66;;;0.68;100.00
29433;BME280;16405;53.964;13.448;2022-12-01T07:04:06;102619.22;;;0.73;100.00
29433;BME280;16405;53.964;13.448;2022-12-01T07:06:32;102619.22;;;0.73;100.00
29433;BME280;16405;53.964;13.448;2022-12-01T07:08:58;102616.47;;;0.67;100.00
29433;BME280;16405;53.964;13.448;2022-12-01T07:11:24;102623.44;;;0.68;100.00
29433;BME280;16405;53.964;13.448;2022-12-01T07:13:55;102624.50;;;0.76;100.00
29433;BME280;16405;53.964;13.448;2022-12-01T07:16:24;102613.72;;;0.59;100.00
29433;BME280;16405;53.964;13.448;2022-12-01T07:18:50;102614.78;;;0.67;100.00
29433;BME280;16405;53.964;13.448;2022-12-01T07:21:17;102617.41;;;0.69;100.00
29433;BME280;16405;53.964;13.448;2022-12-01T07:23:43;102623.50;;;0.71;100.00
29433;BME280;16405;53.964;13.448;2022-12-01T07:26:17;102621.75;;;0.70;100.00
29433;BME280;16405;53.964;13.448;2022-12-01T07:28:44;102619.19;;;0.71;100.00
29433;BME280;16405;53.964;13.448;2022-12-01T07:31:16;102620.69;;;0.61;100.00
29433;BME280;16405;53.964;13.448;2022-12-01T07:33:48;102617.19;;;0.59;100.00
29433;BME280;16405;53.964;13.448;2022-12-01T07:36:14;102618.69;;;0.50;100.00
29433;BME280;16405;53.964;13.448;2022-12-01T07:38:40;102622.16;;;0.50;100.00
29433;BME280;16405;53.964;13.448;2022-12-01T07:41:16;102624.91;;;0.56;100.00
29433;BME280;16405;53.964;13.448;2022-12-01T07:43:44;102627.28;;;0.49;100.00
29433;BME280;16405;53.964;13.448;2022-12-01T07:46:22;102629.19;;;0.56;100.00
29433;BME280;16405;53.964;13.448;2022-12-01T07:48:49;102626.78;;;0.64;100.00
29433;BME280;16405;53.964;13.448;2022-12-01T07:51:26;102629.31;;;0.60;100.00
29433;BME280;16405;53.964;13.448;2022-12-01T07:53:53;102625.34;;;0.40;100.00
29433;BME280;16405;53.964;13.448;2022-12-01T07:56:22;102631.72;;;0.53;100.00
29433;BME280;16405;53.964;13.448;2022-12-01T07:58:48;102634.38;;;0.56;100.00
29433;BME280;16405;53.964;13.448;2022-12-01T08:03:58;102650.25;;;0.68;100.00
29433;BME280;16405;53.964;13.448;2022-12-01T08:06:32;102645.91;;;0.67;100.00
29433;BME280;16405;53.964;13.448;2022-12-01T08:08:57;102650.72;;;0.53;100.00
29433;BME280;16405;53.964;13.448;2022-12-01T08:11:26;102647.16;;;0.48;100.00
29433;BME280;16405;53.964;13.448;2022-12-01T08:14:03;102646.38;;;0.52;100.00
29433;BME280;16405;53.964;13.448;2022-12-01T08:16:31;102655.19;;;0.59;100.00
29433;BME280;16405;53.964;13.448;2022-12-01T08:19:00;102652.38;;;0.50;100.00
29433;BME280;16405;53.964;13.448;2022-12-01T08:21:28;102657.69;;;0.54;100.00
29433;BME280;16405;53.964;13.448;2022-12-01T08:23:56;102656.91;;;0.58;100.00
29433;BME280;16405;53.964;13.448;2022-12-01T08:26:24;102654.16;;;0.52;100.00
29433;BME280;16405;53.964;13.448;2022-12-01T08:28:50;102648.28;;;0.59;100.00
29433;BME280;16405;53.964;13.448;2022-12-01T08:33:51;102650.94;;;0.63;100.00
29433;BME280;16405;53.964;13.448;2022-12-01T08:36:17;102648.13;;;0.53;100.00
29433;BME280;16405;53.964;13.448;2022-12-01T08:38:48;102656.00;;;0.56;100.00
29433;BME280;16405;53.964;13.448;2022-12-01T08:41:18;102652.00;;;0.69;100.00
29433;BME280;16405;53.964;13.448;2022-12-01T08:43:44;102653.78;;;0.72;100.00
29433;BME280;16405;53.964;13.448;2022-12-01T08:46:11;102658.97;;;0.72;100.00
29433;BME280;16405;53.964;13.448;2022-12-01T08:48:45;102659.81;;;0.71;100.00
29433;BME280;16405;53.964;13.448;2022-12-01T08:51:14;102659.41;;;0.55;100.00
29433;BME280;16405;53.964;13.448;2022-12-01T08:53:46;102659.50;;;0.58;100.00
29433;BME280;16405;53.964;13.448;2022-12-01T08:56:28;102666.09;;;0.47;100.00
29433;BME280;16405;53.964;13.448;2022-12-01T08:58:54;102667.25;;;0.57;100.00
29433;BME280;16405;53.964;13.448;2022-12-01T09:01:20;102667.50;;;0.68;100.00
29433;BME280;16405;53.964;13.448;2022-12-01T09:03:55;102667.59;;;0.71;100.00
29433;BME280;16405;53.964;13.448;2022-12-01T09:06:38;102662.50;;;0.74;100.00
29433;BME280;16405;53.964;13.448;2022-12-01T09:09:06;102673.69;;;0.73;100.00
29433;BME280;16405;53.964;13.448;2022-12-01T09:11:44;102670.09;;;0.68;100.00
29433;BME280;16405;53.964;13.448;2022-12-01T09:14:29;102670.28;;;0.74;100.00
29433;BME280;16405;53.964;13.448;2022-12-01T09:17:39;102669.72;;;0.52;100.00
29433;BME280;16405;53.964;13.448;2022-12-01T09:20:10;102667.28;;;0.58;100.00
29433;BME280;16405;53.964;13.448;2022-12-01T09:22:44;102660.50;;;0.64;100.00
29433;BME280;16405;53.964;13.448;2022-12-01T09:25:18;102665.78;;;0.68;100.00
29433;BME280;16405;53.964;13.448;2022-12-01T09:27:56;102670.88;;;0.64;100.00
29433;BME280;16405;53.964;13.448;2022-12-01T09:30:22;102678.00;;;0.72;100.00
29433;BME280;16405;53.964;13.448;2022-12-01T09:32:47;102669.25;;;0.67;100.00
29433;BME280;16405;53.964;13.448;2022-12-01T09:35:16;102673.41;;;0.60;100.00
29433;BME280;16405;53.964;13.448;2022-12-01T09:38:08;102676.97;;;0.66;100.00
29433;BME280;16405;53.964;13.448;2022-12-01T09:40:47;102678.47;;;0.57;100.00
29433;BME280;16405;53.964;13.448;2022-12-01T09:43:30;102685.66;;;0.68;100.00
29433;BME280;16405;53.964;13.448;2022-12-01T09:46:21;102681.47;;;0.73;100.00
29433;BME280;16405;53.964;13.448;2022-12-01T09:48:52;102679.97;;;0.48;100.00
29433;BME280;16405;53.964;13.448;2022-12-01T09:51:28;102674.00;;;0.52;100.00
29433;BME280;16405;53.964;13.448;2022-12-01T09:54:07;102672.75;;;0.71;100.00
29433;BME280;16405;53.964;13.448;2022-12-01T09:56:51;102666.75;;;0.72;100.00
29433;BME280;16405;53.964;13.448;2022-12-01T09:59:41;102666.00;;;0.77;99.57
29433;BME280;16405;53.964;13.448;2022-12-01T10:06:12;102671.47;;;0.88;98.18
29433;BME280;16405;53.964;13.448;2022-12-01T10:10:11;102665.25;;;0.80;96.49
29433;BME280;16405;53.964;13.448;2022-12-01T10:12:49;102656.66;;;0.82;95.58
29433;BME280;16405;53.964;13.448;2022-12-01T10:32:51;102649.81;;;0.86;94.05
29433;BME280;16405;53.964;13.448;2022-12-01T10:36:15;102638.91;;;0.65;93.56
29433;BME280;16405;53.964;13.448;2022-12-01T10:39:02;102650.34;;;0.73;93.86
29433;BME280;16405;53.964;13.448;2022-12-01T10:41:38;102648.88;;;0.82;93.58
29433;BME280;16405;53.964;13.448;2022-12-01T10:44:30;102638.72;;;0.57;93.44
29433;BME280;16405;53.964;13.448;2022-12-01T10:47:32;102644.34;;;0.74;93.99
29433;BME280;16405;53.964;13.448;2022-12-01T10:53:39;102640.34;;;0.88;93.53
29433;BME280;16405;53.964;13.448;2022-12-01T11:19:32;102628.22;;;1.25;90.80
29433;BME280;16405;53.964;13.448;2022-12-01T11:44:31;102619.47;;;1.61;88.25
29433;BME280;16405;53.964;13.448;2022-12-01T11:55:41;102619.66;;;1.70;87.88
29433;BME280;16405;53.964;13.448;2022-12-01T14:46:18;102611.78;;;1.66;89.66
29433;BME280;16405;53.964;13.448;2022-12-01T14:48:48;102609.00;;;1.56;89.74
29433;BME280;16405;53.964;13.448;2022-12-01T14:51:33;102607.28;;;1.57;89.83
29433;BME280;16405;53.964;13.448;2022-12-01T14:54:44;102603.41;;;1.38;89.53
29433;BME280;16405;53.964;13.448;2022-12-01T14:57:41;102608.59;;;1.38;90.18
29433;BME280;16405;53.964;13.448;2022-12-01T15:00:20;102598.31;;;1.42;89.77
29433;BME280;16405;53.964;13.448;2022-12-01T15:03:11;102590.28;;;1.30;89.93
29433;BME280;16405;53.964;13.448;2022-12-01T15:05:41;102600.66;;;1.30;90.07
29433;BME280;16405;53.964;13.448;2022-12-01T15:11:25;102597.97;;;1.26;89.94
29433;BME280;16405;53.964;13.448;2022-12-01T15:13:53;102604.94;;;1.28;89.84
29433;BME280;16405;53.964;13.448;2022-12-01T15:16:31;102602.41;;;1.31;90.00
29433;BME280;16405;53.964;13.448;2022-12-01T15:19:41;102600.09;;;1.43;89.94
29433;BME280;16405;53.964;13.448;2022-12-01T15:22:14;102607.06;;;1.46;89.99
29433;BME280;16405;53.964;13.448;2022-12-01T15:24:50;102600.03;;;1.42;89.87
29433;BME280;16405;53.964;13.448;2022-12-01T15:27:42;102598.41;;;1.46;89.75
29433;BME280;16405;53.964;13.448;2022-12-01T15:30:13;102603.25;;;1.30;89.52
29433;BME280;16405;53.964;13.448;2022-12-01T15:32:51;102599.03;;;1.35;89.83
29433;BME280;16405;53.964;13.448;2022-12-01T15:35:27;102599.19;;;1.41;89.90
29433;BME280;16405;53.964;13.448;2022-12-01T15:38:14;102596.66;;;1.46;89.97
29433;BME280;16405;53.964;13.448;2022-12-01T15:41:03;102589.88;;;1.51;89.86
29433;BME280;16405;53.964;13.448;2022-12-01T15:43:44;102597.66;;;1.51;89.95
29433;BME280;16405;53.964;13.448;2022-12-01T15:46:39;102591.63;;;1.52;89.61
29433;BME280;16405;53.964;13.448;2022-12-01T15:49:32;102594.84;;;1.42;89.25
29433;BME280;16405;53.964;13.448;2022-12-01T15:52:14;102596.50;;;1.37;89.86
29433;BME280;16405;53.964;13.448;2022-12-01T15:57:51;102592.06;;;1.33;90.17
29433;BME280;16405;53.964;13.448;2022-12-01T16:00:21;102593.88;;;1.37;90.19
29433;BME280;16405;53.964;13.448;2022-12-01T16:02:57;102604.31;;;1.40;90.37
29433;BME280;16405;53.964;13.448;2022-12-01T16:05:49;102584.09;;;1.25;90.57
29433;BME280;16405;53.964;13.448;2022-12-01T16:08:30;102579.16;;;1.36;90.89
29433;BME280;16405;53.964;13.448;2022-12-01T16:11:17;102588.78;;;1.41;90.90
29433;BME280;16405;53.964;13.448;2022-12-01T16:13:54;102587.09;;;1.43;90.91
29433;BME280;16405;53.964;13.448;2022-12-01T16:22:11;102595.06;;;1.53;90.37
29433;BME280;16405;53.964;13.448;2022-12-01T16:24:53;102593.34;;;1.52;90.50
29433;BME280;16405;53.964;13.448;2022-12-01T16:27:29;102591.53;;;1.48;90.03
29433;BME280;16405;53.964;13.448;2022-12-01T16:30:19;102593.25;;;1.49;90.19
29433;BME280;16405;53.964;13.448;2022-12-01T16:32:59;102589.66;;;1.42;90.23
29433;BME280;16405;53.964;13.448;2022-12-01T16:35:30;102589.66;;;1.40;90.11
29433;BME280;16405;53.964;13.448;2022-12-01T16:38:11;102593.94;;;1.38;90.43
29433;BME280;16405;53.964;13.448;2022-12-01T16:40:51;102594.03;;;1.44;90.73
29433;BME280;16405;53.964;13.448;2022-12-01T16:43:40;102597.53;;;1.47;90.71
29433;BME280;16405;53.964;13.448;2022-12-01T16:46:10;102599.31;;;1.48;90.85
29433;BME280;16405;53.964;13.448;2022-12-01T16:48:46;102591.53;;;1.48;90.85
29433;BME280;16405;53.964;13.448;2022-12-01T16:51:13;102589.88;;;1.51;90.81
29433;BME280;16405;53.964;13.448;2022-12-01T16:53:50;102596.00;;;1.55;90.54
29433;BME280;16405;53.964;13.448;2022-12-01T16:56:19;102598.66;;;1.58;90.93
29433;BME280;16405;53.964;13.448;2022-12-01T16:58:51;102596.97;;;1.60;90.94
29433;BME280;16405;53.964;13.448;2022-12-01T17:01:20;102595.22;;;1.59;90.60
29433;BME280;16405;53.964;13.448;2022-12-01T17:03:48;102597.00;;;1.61;90.65
29433;BME280;16405;53.964;13.448;2022-12-01T17:06:28;102590.91;;;1.61;90.45
29433;BME280;16405;53.964;13.448;2022-12-01T17:09:00;102584.69;;;1.53;90.23
29433;BME280;16405;53.964;13.448;2022-12-01T17:11:30;102588.97;;;1.49;90.10
29433;BME280;16405;53.964;13.448;2022-12-01T17:13:56;102590.75;;;1.52;90.63
29433;BME280;16405;53.964;13.448;2022-12-01T17:16:47;102590.84;;;1.56;90.61
29433;BME280;16405;53.964;13.448;2022-12-01T17:19:14;102589.97;;;1.56;91.05
29433;BME280;16405;53.964;13.448;2022-12-01T17:25:55;102592.56;;;1.57;90.55
29433;BME280;16405;53.964;13.448;2022-12-01T17:28:21;102590.00;;;1.59;90.49
29433;BME280;16405;53.964;13.448;2022-12-01T17:30:59;102594.28;;;1.57;90.87
29433;BME280;16405;53.964;13.448;2022-12-01T17:33:25;102591.69;;;1.57;90.58
29433;BME280;16405;53.964;13.448;2022-12-01T17:36:13;102595.16;;;1.57;91.00
29433;BME280;16405;53.964;13.448;2022-12-01T17:38:42;102590.75;;;1.52;90.95
29433;BME280;16405;53.964;13.448;2022-12-01T17:41:20;102591.69;;;1.57;91.12
29433;BME280;16405;53.964;13.448;2022-12-01T17:44:14;102593.47;;;1.58;91.33
29433;BME280;16405;53.964;13.448;2022-12-01T17:46:41;102601.25;;;1.58;91.15
29433;BME280;16405;53.964;13.448;2022-12-01T17:49:06;102609.06;;;1.59;91.33
29433;BME280;16405;53.964;13.448;2022-12-01T17:51:41;102615.16;;;1.60;91.29
29433;BME280;16405;53.964;13.448;2022-12-01T17:54:07;102605.63;;;1.60;91.49
29433;BME280;16405;53.964;13.448;2022-12-01T17:56:45;102611.75;;;1.62;91.60
29433;BME280;16405;53.964;13.448;2022-12-01T17:59:11;102603.97;;;1.64;91.74
29433;BME280;16405;53.964;13.448;2022-12-01T18:01:55;102606.63;;;1.67;91.72
29433;BME280;16405;53.964;13.448;2022-12-01T18:04:30;102610.13;;;1.69;91.86
29433;BME280;16405;53.964;13.448;2022-12-01T18:06:56;102618.81;;;1.70;91.61
29433;BME280;16405;53.964;13.448;2022-12-01T18:09:25;102617.16;;;1.73;91.57